Time;durP1;ratioP1;P1;durP2;ratioP2;P2;SDS_P1;SDS_P2;PMS_P1;PMS_P2;Temp;Humidity;BMP_temperature;BMP_pressure;BME280_temperature;BME280_humidity;BME280_pressure;Samples;Min_cycle;Max_cycle;Signal;HPM_P1;HPM_P2
2023/09/28 00:01:55;;;;;;;;;;;;;;;17.86;100.00;101274.88;5038366;28;19921;-70
2023/09/28 00:04:20;;;;;;;;;;;;;;;17.84;100.00;101276.88;5038308;28;19924;-70
2023/09/28 00:06:45;;;;;;;;;;;;;;;17.91;100.00;101264.34;5036543;28;20165;-70
2023/09/28 00:09:10;;;;;;;;;;;;;;;17.77;100.00;101267.66;5036342;28;19975;-70
2023/09/28 00:11:36;;;;;;;;;;;;;;;17.74;100.00;101287.84;5036920;28;20041;-69
2023/09/28 00:14:01;;;;;;;;;;;;;;;17.67;100.00;101284.03;5037799;28;19966;-70
2023/09/28 00:16:26;;;;;;;;;;;;;;;17.76;100.00;101283.06;5038748;28;19993;-69
2023/09/28 00:18:51;;;;;;;;;;;;;;;17.68;100.00;101283.03;5036451;28;19924;-69
2023/09/28 00:21:16;;;;;;;;;;;;;;;17.66;100.00;101293.19;5038468;28;19924;-69
2023/09/28 00:23:42;;;;;;;;;;;;;;;17.62;100.00;101295.34;5037639;28;19916;-69
2023/09/28 00:26:07;;;;;;;;;;;;;;;17.56;100.00;101297.81;5036473;28;19967;-69
2023/09/28 00:28:33;;;;;;;;;;;;;;;17.52;100.00;101295.41;5036480;28;19928;-69
2023/09/28 00:30:58;;;;;;;;;;;;;;;17.57;100.00;101300.41;5038248;28;19925;-70
2023/09/28 00:33:24;;;;;;;;;;;;;;;17.69;100.00;101301.03;5038248;28;20030;-69
2023/09/28 00:35:49;;;;;;;;;;;;;;;17.59;100.00;101294.81;5037995;28;19975;-69
2023/09/28 00:38:14;;;;;;;;;;;;;;;17.60;100.00;101293.78;5037202;28;20006;-69
2023/09/28 00:40:39;;;;;;;;;;;;;;;17.61;100.00;101299.06;5037238;28;19996;-69
2023/09/28 00:43:05;;;;;;;;;;;;;;;17.69;100.00;101299.16;5034183;28;19920;-70
2023/09/28 00:45:30;;;;;;;;;;;;;;;17.69;100.00;101292.88;5036103;28;19942;-69
2023/09/28 00:47:59;;;;;;;;;;;;;;;17.59;100.00;101306.53;5038107;28;19956;-69
2023/09/28 00:50:26;;;;;;;;;;;;;;;17.52;100.00;101308.97;5037070;28;20843;-70
2023/09/28 00:52:52;;;;;;;;;;;;;;;17.56;100.00;101314.97;5035065;28;20090;-69
2023/09/28 00:55:18;;;;;;;;;;;;;;;17.61;100.00;101309.06;5036273;28;20349;-69
2023/09/28 00:57:43;;;;;;;;;;;;;;;17.62;100.00;101302.66;5035535;28;20327;-69
2023/09/28 01:00:27;;;;;;;;;;;;;;;17.60;100.00;101302.81;5037293;28;19962;-69
2023/09/28 01:02:53;;;;;;;;;;;;;;;17.34;100.00;101317.13;5036102;28;19920;-69
2023/09/28 01:05:22;;;;;;;;;;;;;;;17.24;100.00;101317.16;5036111;28;20011;-69
2023/09/28 01:07:48;;;;;;;;;;;;;;;16.99;100.00;101309.72;5036127;28;19987;-69
2023/09/28 01:10:14;;;;;;;;;;;;;;;16.94;100.00;101308.31;5035766;28;20430;-70
2023/09/28 01:12:40;;;;;;;;;;;;;;;16.89;100.00;101310.63;5035529;28;19921;-71
2023/09/28 01:15:09;;;;;;;;;;;;;;;17.00;100.00;101311.44;5036354;28;20363;-70
2023/09/28 01:17:34;;;;;;;;;;;;;;;17.12;100.00;101312.09;5035623;28;20368;-69
2023/09/28 01:19:59;;;;;;;;;;;;;;;17.08;100.00;101320.53;5035694;28;20006;-69
2023/09/28 01:22:25;;;;;;;;;;;;;;;17.07;100.00;101315.28;5035305;28;20023;-69
2023/09/28 01:24:50;;;;;;;;;;;;;;;16.97;100.00;101306.31;5037543;28;19921;-69
2023/09/28 01:27:15;;;;;;;;;;;;;;;17.00;100.00;101300.59;5035744;28;20367;-69
2023/09/28 01:29:41;;;;;;;;;;;;;;;16.96;100.00;101312.75;5019477;28;20519;-68
2023/09/28 01:32:06;;;;;;;;;;;;;;;16.85;100.00;101324.63;5018861;28;20420;-70
2023/09/28 01:34:31;;;;;;;;;;;;;;;16.70;100.00;101319.69;5036711;28;19921;-69
2023/09/28 01:36:57;;;;;;;;;;;;;;;16.69;100.00;101319.81;5036022;28;19920;-69
2023/09/28 01:39:22;;;;;;;;;;;;;;;16.70;100.00;101313.38;5035004;28;19916;-69
2023/09/28 01:41:47;;;;;;;;;;;;;;;16.61;100.00;101326.84;5032106;28;19921;-69
2023/09/28 01:44:12;;;;;;;;;;;;;;;16.56;100.00;101318.31;5018770;28;19966;-69
2023/09/28 01:46:37;;;;;;;;;;;;;;;16.54;100.00;101322.19;5035919;28;19963;-69
2023/09/28 01:49:03;;;;;;;;;;;;;;;16.59;100.00;101322.56;5036098;28;20019;-69
2023/09/28 01:51:28;;;;;;;;;;;;;;;16.50;100.00;101329.72;5035664;28;19921;-69
2023/09/28 01:53:53;;;;;;;;;;;;;;;16.47;100.00;101327.31;5036467;28;20275;-69
2023/09/28 01:56:18;;;;;;;;;;;;;;;16.43;100.00;101328.59;5052040;28;20331;-69
2023/09/28 01:58:44;;;;;;;;;;;;;;;16.50;100.00;101332.44;5035056;28;20343;-68
2023/09/28 02:01:11;;;;;;;;;;;;;;;16.41;100.00;101336.03;5035650;28;20408;-69
2023/09/28 02:03:37;;;;;;;;;;;;;;;16.44;100.00;101336.59;5017879;28;20130;-68
2023/09/28 02:06:02;;;;;;;;;;;;;;;16.38;100.00;101339.88;5035891;28;19925;-69
2023/09/28 02:08:27;;;;;;;;;;;;;;;16.11;100.00;101317.09;5032101;28;19964;-69
2023/09/28 02:10:52;;;;;;;;;;;;;;;16.23;100.00;101346.75;5034681;28;19978;-69
2023/09/28 02:13:18;;;;;;;;;;;;;;;16.17;100.00;101348.16;5037298;28;20017;-69
2023/09/28 02:15:43;;;;;;;;;;;;;;;16.08;100.00;101355.31;5040248;28;20427;-69
2023/09/28 02:18:08;;;;;;;;;;;;;;;15.89;100.00;101356.19;5022114;28;20365;-69
2023/09/28 02:20:34;;;;;;;;;;;;;;;15.71;100.00;101366.81;5038902;28;19928;-69
2023/09/28 02:22:59;;;;;;;;;;;;;;;15.72;100.00;101355.84;5038124;28;19920;-69
2023/09/28 02:25:25;;;;;;;;;;;;;;;15.70;100.00;101359.69;5039279;28;19924;-69
2023/09/28 02:27:51;;;;;;;;;;;;;;;15.67;100.00;101360.81;5038827;28;19943;-69
2023/09/28 02:30:20;;;;;;;;;;;;;;;15.68;100.00;101357.13;5038891;28;19951;-69
2023/09/28 02:32:51;;;;;;;;;;;;;;;15.71;100.00;101359.53;5038209;28;19964;-69
2023/09/28 02:35:17;;;;;;;;;;;;;;;15.77;100.00;101363.53;5039084;28;19928;-69
2023/09/28 02:37:44;;;;;;;;;;;;;;;15.81;100.00;101364.97;5037732;28;19921;-68
2023/09/28 02:40:09;;;;;;;;;;;;;;;15.83;100.00;101370.25;5036687;28;19963;-69
2023/09/28 02:42:35;;;;;;;;;;;;;;;15.81;100.00;101369.53;5038415;28;19975;-69
2023/09/28 02:45:00;;;;;;;;;;;;;;;15.81;100.00;101361.41;5039595;28;19987;-69
2023/09/28 02:47:26;;;;;;;;;;;;;;;15.83;100.00;101359.41;5038699;28;19913;-69
2023/09/28 02:49:51;;;;;;;;;;;;;;;15.81;100.00;101366.81;5055034;28;20371;-69
2023/09/28 02:52:17;;;;;;;;;;;;;;;15.77;100.00;101365.41;5038794;28;19929;-68
2023/09/28 02:54:43;;;;;;;;;;;;;;;15.72;100.00;101361.25;5040182;28;20019;-69
2023/09/28 02:57:08;;;;;;;;;;;;;;;15.52;100.00;101370.34;5037634;28;19920;-68
2023/09/28 02:59:34;;;;;;;;;;;;;;;15.26;100.00;101379.81;5039728;28;19932;-69
2023/09/28 03:01:59;;;;;;;;;;;;;;;15.13;100.00;101379.19;5038215;28;19921;-69
2023/09/28 03:04:24;;;;;;;;;;;;;;;15.14;100.00;101386.31;5038438;28;19925;-68
2023/09/28 03:06:52;;;;;;;;;;;;;;;15.21;100.00;101381.22;5039090;28;19999;-69
2023/09/28 03:09:17;;;;;;;;;;;;;;;15.23;100.00;101380.06;5038514;28;19928;-69
2023/09/28 03:11:43;;;;;;;;;;;;;;;15.35;100.00;101378.16;5039695;28;19924;-68
2023/09/28 03:14:08;;;;;;;;;;;;;;;15.37;100.00;101381.53;5040040;28;20412;-69
2023/09/28 03:16:33;;;;;;;;;;;;;;;15.32;100.00;101381.13;5038125;28;19921;-68
2023/09/28 03:19:00;;;;;;;;;;;;;;;15.34;100.00;101392.66;5038963;28;19925;-68
2023/09/28 03:21:25;;;;;;;;;;;;;;;15.26;100.00;101392.47;5039616;28;19917;-69
2023/09/28 03:23:51;;;;;;;;;;;;;;;15.20;100.00;101402.00;5037910;28;19943;-69
2023/09/28 03:26:16;;;;;;;;;;;;;;;15.30;100.00;101404.75;5038965;28;19967;-69
2023/09/28 03:28:41;;;;;;;;;;;;;;;15.32;100.00;101399.19;5037621;28;19921;-69
2023/09/28 03:31:07;;;;;;;;;;;;;;;15.35;100.00;101402.50;5039148;28;19935;-69
2023/09/28 03:33:32;;;;;;;;;;;;;;;15.37;100.00;101405.03;5037322;28;19928;-69
2023/09/28 03:35:57;;;;;;;;;;;;;;;15.28;100.00;101412.16;5039135;28;20011;-69
2023/09/28 03:38:23;;;;;;;;;;;;;;;15.28;100.00;101418.41;5037952;28;19948;-69
2023/09/28 03:40:48;;;;;;;;;;;;;;;15.26;100.00;101412.25;5038639;28;19924;-69
2023/09/28 03:43:13;;;;;;;;;;;;;;;15.22;100.00;101416.25;5034244;28;19920;-69
2023/09/28 03:45:39;;;;;;;;;;;;;;;15.20;100.00;101426.34;5036969;28;19927;-69
2023/09/28 03:48:04;;;;;;;;;;;;;;;15.20;100.00;101429.06;5039030;28;19928;-69
2023/09/28 03:50:29;;;;;;;;;;;;;;;15.25;100.00;101436.75;5036790;28;19925;-69
2023/09/28 03:52:55;;;;;;;;;;;;;;;15.26;100.00;101443.88;5038431;28;19921;-69
2023/09/28 03:55:24;;;;;;;;;;;;;;;15.26;100.00;101447.44;5038713;28;19951;-69
2023/09/28 03:57:50;;;;;;;;;;;;;;;15.36;100.00;101449.31;5020898;28;20163;-69
2023/09/28 04:00:16;;;;;;;;;;;;;;;15.11;100.00;101409.06;5019901;28;19966;-69
2023/09/28 04:02:42;;;;;;;;;;;;;;;15.33;100.00;101455.00;5037189;28;19921;-69
2023/09/28 04:05:07;;;;;;;;;;;;;;;15.35;100.00;101461.16;5038709;28;19925;-69
2023/09/28 04:07:33;;;;;;;;;;;;;;;15.30;100.00;101456.16;5037163;28;19978;-69
2023/09/28 04:09:58;;;;;;;;;;;;;;;15.26;100.00;101460.09;5038438;28;19936;-69
2023/09/28 04:12:23;;;;;;;;;;;;;;;15.11;100.00;101446.09;5020180;28;19923;-69
2023/09/28 04:14:48;;;;;;;;;;;;;;;15.25;100.00;101455.69;5036140;28;20402;-69
2023/09/28 04:17:13;;;;;;;;;;;;;;;15.24;100.00;101457.53;5036826;28;20426;-69
2023/09/28 04:19:39;;;;;;;;;;;;;;;15.23;100.00;101450.41;5036551;28;20019;-69
2023/09/28 04:22:04;;;;;;;;;;;;;;;15.17;100.00;101447.38;5037747;28;20381;-69
2023/09/28 04:24:29;;;;;;;;;;;;;;;15.20;100.00;101447.13;5037274;28;19921;-69
2023/09/28 04:26:58;;;;;;;;;;;;;;;15.06;100.00;101446.50;5037155;28;19921;-69
2023/09/28 04:29:23;;;;;;;;;;;;;;;15.00;100.00;101453.28;5037608;28;20434;-69
2023/09/28 04:31:48;;;;;;;;;;;;;;;15.02;100.00;101455.88;5038054;28;19940;-69
2023/09/28 04:34:15;;;;;;;;;;;;;;;15.04;100.00;101450.31;5036509;28;19920;-69
2023/09/28 04:36:40;;;;;;;;;;;;;;;15.11;100.00;101451.50;5035080;28;20357;-69
2023/09/28 04:39:05;;;;;;;;;;;;;;;15.14;100.00;101451.22;5035799;28;19965;-69
2023/09/28 04:41:34;;;;;;;;;;;;;;;15.13;100.00;101441.41;5033706;28;19925;-69
2023/09/28 04:43:59;;;;;;;;;;;;;;;15.11;100.00;101440.69;5052888;28;20383;-69
2023/09/28 04:46:26;;;;;;;;;;;;;;;15.11;100.00;101451.50;5036823;28;20351;-69
2023/09/28 04:48:52;;;;;;;;;;;;;;;15.06;100.00;101457.31;5035669;28;20859;-69
2023/09/28 04:51:18;;;;;;;;;;;;;;;15.10;100.00;101461.44;5036499;28;19925;-69
2023/09/28 04:53:43;;;;;;;;;;;;;;;15.13;100.00;101463.88;5035637;28;19927;-69
2023/09/28 04:56:11;;;;;;;;;;;;;;;15.14;100.00;101467.47;5037995;28;19921;-69
2023/09/28 04:58:37;;;;;;;;;;;;;;;15.19;100.00;101461.63;5036764;28;19926;-69
2023/09/28 05:01:02;;;;;;;;;;;;;;;15.20;100.00;101461.53;5036392;28;19921;-69
2023/09/28 05:03:27;;;;;;;;;;;;;;;15.15;100.00;101466.47;5035581;28;19982;-69
2023/09/28 05:05:52;;;;;;;;;;;;;;;15.14;100.00;101471.00;5036397;28;19940;-69
2023/09/28 05:08:18;;;;;;;;;;;;;;;15.12;100.00;101475.69;5017561;28;19926;-69
2023/09/28 05:10:43;;;;;;;;;;;;;;;15.10;100.00;101487.63;5037412;28;19924;-69
2023/09/28 05:13:08;;;;;;;;;;;;;;;15.05;100.00;101496.16;5035882;28;20059;-69
2023/09/28 05:15:33;;;;;;;;;;;;;;;15.04;100.00;101493.56;5036632;28;19924;-69
2023/09/28 05:17:59;;;;;;;;;;;;;;;14.98;100.00;101501.22;5034868;28;19956;-70
2023/09/28 05:20:24;;;;;;;;;;;;;;;15.06;100.00;101507.81;5036775;28;20027;-69
2023/09/28 05:22:49;;;;;;;;;;;;;;;15.03;100.00;101513.50;5034581;28;19943;-68
2023/09/28 05:25:14;;;;;;;;;;;;;;;14.98;100.00;101512.03;5036106;28;20661;-69
2023/09/28 05:27:39;;;;;;;;;;;;;;;15.06;100.00;101521.34;5036575;28;20011;-68
2023/09/28 05:30:05;;;;;;;;;;;;;;;15.00;100.00;101520.88;5036437;28;20039;-69
2023/09/28 05:32:31;;;;;;;;;;;;;;;14.92;100.00;101527.94;5035477;28;19921;-69
2023/09/28 05:34:56;;;;;;;;;;;;;;;14.92;100.00;101530.63;5037032;28;19920;-68
2023/09/28 05:37:21;;;;;;;;;;;;;;;14.97;100.00;101533.81;5034414;28;19921;-69
2023/09/28 05:39:47;;;;;;;;;;;;;;;15.00;100.00;101538.97;5035714;28;19920;-69
2023/09/28 05:42:12;;;;;;;;;;;;;;;15.05;100.00;101544.84;5035576;28;19917;-68
2023/09/28 05:44:37;;;;;;;;;;;;;;;15.08;100.00;101546.41;5037392;28;19920;-69
2023/09/28 05:47:02;;;;;;;;;;;;;;;15.05;100.00;101544.84;5035868;28;20362;-69
2023/09/28 05:49:29;;;;;;;;;;;;;;;15.05;100.00;101550.25;5038904;28;19921;-69
2023/09/28 05:51:54;;;;;;;;;;;;;;;15.04;100.00;101558.47;5041752;28;19925;-69
2023/09/28 05:54:20;;;;;;;;;;;;;;;15.05;100.00;101560.19;5038871;28;19928;-69
2023/09/28 05:56:45;;;;;;;;;;;;;;;15.04;100.00;101567.47;5039895;28;19916;-69
2023/09/28 05:59:10;;;;;;;;;;;;;;;15.06;100.00;101570.03;5038950;28;19927;-69
2023/09/28 06:01:36;;;;;;;;;;;;;;;15.12;100.00;101580.31;5039216;28;19923;-69
2023/09/28 06:04:02;;;;;;;;;;;;;;;15.14;100.00;101570.22;5039494;28;19924;-69
2023/09/28 06:06:27;;;;;;;;;;;;;;;15.13;100.00;101572.06;5039500;28;19924;-69
2023/09/28 06:08:52;;;;;;;;;;;;;;;15.09;100.00;101594.09;5038283;28;20057;-69
2023/09/28 06:11:17;;;;;;;;;;;;;;;15.06;100.00;101589.81;5039541;28;19929;-69
2023/09/28 06:13:43;;;;;;;;;;;;;;;15.06;100.00;101605.19;5039263;28;19967;-69
2023/09/28 06:16:10;;;;;;;;;;;;;;;15.07;100.00;101609.59;5039553;28;19923;-69
2023/09/28 06:18:36;;;;;;;;;;;;;;;15.07;100.00;101606.91;5038502;28;20585;-69
2023/09/28 06:21:01;;;;;;;;;;;;;;;15.06;100.00;101602.47;5035764;28;19928;-69
2023/09/28 06:23:26;;;;;;;;;;;;;;;15.08;100.00;101592.38;5038612;28;20008;-69
2023/09/28 06:25:52;;;;;;;;;;;;;;;15.14;100.00;101581.91;5055523;28;20350;-69
2023/09/28 06:28:17;;;;;;;;;;;;;;;15.06;100.00;101557.38;5038694;28;20383;-69
2023/09/28 06:30:42;;;;;;;;;;;;;;;15.25;100.00;101589.09;5038679;28;19987;-69
2023/09/28 06:33:07;;;;;;;;;;;;;;;15.32;100.00;101575.91;5037871;28;20352;-69
2023/09/28 06:35:33;;;;;;;;;;;;;;;15.39;100.00;101584.34;5055043;28;20321;-69
2023/09/28 06:38:00;;;;;;;;;;;;;;;15.53;100.00;101594.81;5038283;28;19913;-71
2023/09/28 06:40:25;;;;;;;;;;;;;;;15.50;100.00;101591.53;5054993;28;20375;-70
2023/09/28 06:42:51;;;;;;;;;;;;;;;15.51;100.00;101599.50;5037763;28;19913;-70
2023/09/28 06:45:16;;;;;;;;;;;;;;;15.57;100.00;101603.53;5038860;28;19956;-70
2023/09/28 06:47:41;;;;;;;;;;;;;;;15.57;100.00;101598.13;5038454;28;20004;-69
2023/09/28 06:50:07;;;;;;;;;;;;;;;15.53;100.00;101599.38;5039005;28;20038;-69
2023/09/28 06:52:32;;;;;;;;;;;;;;;15.60;100.00;101601.41;5037770;28;19920;-69
2023/09/28 06:54:58;;;;;;;;;;;;;;;15.71;100.00;101597.75;5039677;28;20268;-69
2023/09/28 06:57:23;;;;;;;;;;;;;;;15.77;100.00;101599.06;5038064;28;19921;-70
2023/09/28 06:59:48;;;;;;;;;;;;;;;15.86;100.00;101605.56;5037741;28;19931;-69
2023/09/28 07:02:14;;;;;;;;;;;;;;;15.86;100.00;101611.00;5037953;28;19920;-70
2023/09/28 07:04:39;;;;;;;;;;;;;;;15.84;100.00;101621.91;5037703;28;20259;-68
2023/09/28 07:07:05;;;;;;;;;;;;;;;16.00;100.00;101628.72;5037910;28;20019;-69
2023/09/28 07:09:30;;;;;;;;;;;;;;;16.05;100.00;101631.84;5037477;28;19931;-69
2023/09/28 07:11:55;;;;;;;;;;;;;;;16.05;100.00;101634.56;5038187;28;19924;-69
2023/09/28 07:14:21;;;;;;;;;;;;;;;16.19;100.00;101636.91;5039035;28;19936;-69
2023/09/28 07:16:47;;;;;;;;;;;;;;;16.07;100.00;101619.03;5021879;28;19921;-70
2023/09/28 07:19:12;;;;;;;;;;;;;;;16.34;100.00;101648.25;5020740;28;20411;-69
2023/09/28 07:21:37;;;;;;;;;;;;;;;16.43;100.00;101649.25;5039447;28;19924;-70
2023/09/28 07:24:02;;;;;;;;;;;;;;;16.49;100.00;101646.00;5036682;28;19921;-69
2023/09/28 07:26:28;;;;;;;;;;;;;;;16.63;100.00;101649.28;5037592;28;19920;-69
2023/09/28 07:28:54;;;;;;;;;;;;;;;16.74;100.00;101640.19;5037541;28;19925;-70
2023/09/28 07:31:20;;;;;;;;;;;;;;;16.85;100.00;101631.06;5037628;28;19968;-69
2023/09/28 07:33:45;;;;;;;;;;;;;;;16.96;100.00;101613.81;5020199;28;19928;-69
2023/09/28 07:36:11;;;;;;;;;;;;;;;16.97;100.00;101615.53;5037279;28;20263;-70
2023/09/28 07:38:36;;;;;;;;;;;;;;;16.93;100.00;101623.94;5019873;28;19916;-70
2023/09/28 07:41:01;;;;;;;;;;;;;;;16.98;100.00;101630.81;5037407;28;19935;-69
2023/09/28 07:43:27;;;;;;;;;;;;;;;16.80;100.00;101617.94;5047427;28;20419;-69
2023/09/28 07:45:52;;;;;;;;;;;;;;;16.89;100.00;101627.94;5026597;28;20367;-69
2023/09/28 07:48:18;;;;;;;;;;;;;;;16.89;100.00;101638.78;5019735;28;20270;-69
2023/09/28 07:50:43;;;;;;;;;;;;;;;17.07;100.00;101641.69;5037326;28;19928;-68
2023/09/28 07:53:08;;;;;;;;;;;;;;;17.19;100.00;101655.97;5036415;28;19920;-68
2023/09/28 07:55:34;;;;;;;;;;;;;;;17.29;100.00;101665.94;5037139;28;19936;-69
2023/09/28 07:57:59;;;;;;;;;;;;;;;17.34;100.00;101664.53;5036677;28;20291;-68
2023/09/28 08:00:24;;;;;;;;;;;;;;;17.45;100.00;101662.63;5038034;28;19924;-68
2023/09/28 08:02:49;;;;;;;;;;;;;;;17.49;100.00;101674.94;5036889;28;19924;-70
2023/09/28 08:05:15;;;;;;;;;;;;;;;17.52;100.00;101670.06;5036400;28;19932;-69
2023/09/28 08:07:41;;;;;;;;;;;;;;;17.60;100.00;101668.47;5036087;28;19927;-69
2023/09/28 08:10:09;;;;;;;;;;;;;;;17.75;100.00;101677.88;5036230;28;19964;-69
2023/09/28 08:12:34;;;;;;;;;;;;;;;17.88;100.00;101677.53;5035941;28;19932;-70
2023/09/28 08:14:59;;;;;;;;;;;;;;;17.98;100.00;101681.13;5037366;28;19925;-69
2023/09/28 08:17:25;;;;;;;;;;;;;;;17.94;100.00;101671.53;5036978;28;19929;-68
2023/09/28 08:19:50;;;;;;;;;;;;;;;18.07;100.00;101678.53;5037646;28;20431;-69
2023/09/28 08:22:15;;;;;;;;;;;;;;;18.19;100.00;101680.06;5035664;28;19924;-69
2023/09/28 08:24:40;;;;;;;;;;;;;;;18.38;100.00;101684.56;5036706;28;19960;-70
2023/09/28 08:27:06;;;;;;;;;;;;;;;18.03;100.00;101682.56;5036113;28;19932;-71
2023/09/28 08:29:31;;;;;;;;;;;;;;;18.11;100.00;101675.38;5019727;28;19921;-69
2023/09/28 08:31:57;;;;;;;;;;;;;;;18.28;100.00;101676.44;5036071;28;19924;-70
2023/09/28 08:34:23;;;;;;;;;;;;;;;18.50;100.00;101684.38;5034552;28;19921;-68
2023/09/28 08:36:49;;;;;;;;;;;;;;;18.55;100.00;101682.03;5036566;28;20047;-70
2023/09/28 08:39:14;;;;;;;;;;;;;;;18.79;100.00;101675.19;5035562;28;20011;-68
2023/09/28 08:41:43;;;;;;;;;;;;;;;18.99;100.00;101682.22;5032296;28;19921;-68
2023/09/28 08:44:09;;;;;;;;;;;;;;;19.17;100.00;101687.66;5035591;28;20428;-69
2023/09/28 08:46:38;;;;;;;;;;;;;;;19.35;100.00;101692.25;5035755;28;20014;-69
2023/09/28 08:49:05;;;;;;;;;;;;;;;19.36;100.00;101690.34;5034540;28;19927;-71
2023/09/28 08:51:30;;;;;;;;;;;;;;;19.26;100.00;101694.03;5019720;28;20446;-70
2023/09/28 08:53:55;;;;;;;;;;;;;;;19.30;100.00;101711.78;5018771;28;19917;-70
2023/09/28 08:56:21;;;;;;;;;;;;;;;19.20;100.00;101721.88;5034601;28;19948;-69
2023/09/28 08:58:46;;;;;;;;;;;;;;;19.09;100.00;101720.25;5018413;28;19921;-68
2023/09/28 09:01:12;;;;;;;;;;;;;;;19.09;100.00;101722.09;5037180;28;19925;-70
2023/09/28 09:03:38;;;;;;;;;;;;;;;18.87;100.00;101716.94;5035955;28;19928;-70
2023/09/28 09:06:06;;;;;;;;;;;;;;;18.84;100.00;101716.34;5035026;28;19916;-68
2023/09/28 09:08:33;;;;;;;;;;;;;;;18.73;100.00;101714.69;5034667;28;19927;-69
2023/09/28 09:11:00;;;;;;;;;;;;;;;19.17;100.00;101719.47;5036685;28;19928;-69
2023/09/28 09:13:26;;;;;;;;;;;;;;;19.45;100.00;101724.81;5036212;28;19944;-69
2023/09/28 09:15:52;;;;;;;;;;;;;;;19.38;100.00;101727.31;5052433;28;19928;-70
2023/09/28 09:18:20;;;;;;;;;;;;;;;19.37;100.00;101722.03;5036579;28;19917;-70
2023/09/28 09:20:49;;;;;;;;;;;;;;;19.41;100.00;101710.69;5037428;28;19920;-70
2023/09/28 09:23:15;;;;;;;;;;;;;;;19.59;100.00;101707.94;5038265;28;19921;-70
2023/09/28 09:25:44;;;;;;;;;;;;;;;19.68;100.00;101718.88;5039600;28;19959;-70
2023/09/28 09:28:10;;;;;;;;;;;;;;;19.36;100.00;101734.78;5039841;28;19947;-69
2023/09/28 09:30:36;;;;;;;;;;;;;;;19.40;100.00;101725.31;5040310;28;19925;-70
2023/09/28 09:33:03;;;;;;;;;;;;;;;19.54;100.00;101723.03;5041230;28;19916;-70
2023/09/28 09:35:30;;;;;;;;;;;;;;;19.57;100.00;101723.59;5040917;28;19920;-68
2023/09/28 09:37:55;;;;;;;;;;;;;;;19.84;100.00;101729.91;5035879;28;20389;-69
2023/09/28 09:40:21;;;;;;;;;;;;;;;20.26;100.00;101722.84;5041014;28;20301;-70
2023/09/28 09:42:46;;;;;;;;;;;;;;;20.29;100.00;101728.00;5037595;28;20003;-69
2023/09/28 09:45:12;;;;;;;;;;;;;;;20.49;100.00;101717.69;5041052;28;20355;-69
2023/09/28 09:47:41;;;;;;;;;;;;;;;20.61;100.00;101729.16;5039295;28;20490;-68
2023/09/28 09:50:07;;;;;;;;;;;;;;;20.66;100.00;101729.53;5040065;28;19927;-69
2023/09/28 09:52:32;;;;;;;;;;;;;;;20.70;100.00;101727.31;5035350;28;20408;-70
2023/09/28 09:54:57;;;;;;;;;;;;;;;20.71;100.00;101733.66;5039402;28;19995;-70
2023/09/28 09:57:23;;;;;;;;;;;;;;;20.04;100.00;101741.47;5040066;28;19967;-70
2023/09/28 09:59:48;;;;;;;;;;;;;;;19.83;100.00;101744.56;5040833;28;19932;-70
2023/09/28 10:02:34;;;;;;;;;;;;;;;19.88;100.00;101738.66;5039259;28;19916;-70
2023/09/28 10:04:59;;;;;;;;;;;;;;;19.91;100.00;101735.63;5038937;28;20370;-70
2023/09/28 10:07:25;;;;;;;;;;;;;;;20.04;100.00;101729.75;5040153;28;20363;-70
2023/09/28 10:09:50;;;;;;;;;;;;;;;20.53;100.00;101718.22;5039134;28;19959;-70
2023/09/28 10:12:15;;;;;;;;;;;;;;;20.70;100.00;101727.31;5038997;28;19928;-67
2023/09/28 10:14:41;;;;;;;;;;;;;;;20.81;100.00;101729.78;5021931;28;19917;-70
2023/09/28 10:17:06;;;;;;;;;;;;;;;20.01;100.00;101725.44;5040596;28;20006;-70
2023/09/28 10:19:32;;;;;;;;;;;;;;;20.13;100.00;101722.47;5021451;28;19925;-69
2023/09/28 10:21:58;;;;;;;;;;;;;;;20.05;100.00;101706.91;5039679;28;19960;-70
2023/09/28 10:24:31;;;;;;;;;;;;;;;20.08;100.00;101707.44;5052782;28;20487;-70
2023/09/28 10:26:57;;;;;;;;;;;;;;;20.37;100.00;101710.84;5055958;28;20008;-71
2023/09/28 10:29:28;;;;;;;;;;;;;;;20.87;100.00;101702.84;5022008;28;19947;-69
2023/09/28 10:31:53;;;;;;;;;;;;;;;20.77;100.00;101701.13;5039297;28;20409;-71
2023/09/28 10:34:22;;;;;;;;;;;;;;;20.92;100.00;101690.41;5037342;28;20010;-70
2023/09/28 10:37:15;;;;;;;;;;;;;;;20.36;100.00;101693.59;5038190;28;19935;-71
2023/09/28 10:39:43;;;;;;;;;;;;;;;20.76;100.00;101695.81;5038275;28;19927;-70
2023/09/28 10:42:08;;;;;;;;;;;;;;;;;;5038191;28;20367;-69
2023/09/28 10:44:34;;;;;;;;;;;;;;;21.96;100.00;101700.88;5038756;28;20387;-69
2023/09/28 10:46:59;;;;;;;;;;;;;;;22.14;100.00;101703.34;5038255;28;20134;-70
2023/09/28 10:49:24;;;;;;;;;;;;;;;21.83;100.00;101709.59;5038866;28;19975;-71
2023/09/28 10:51:51;;;;;;;;;;;;;;;20.62;100.00;101719.97;5039818;28;20011;-71
2023/09/28 10:54:16;;;;;;;;;;;;;;;20.77;100.00;101716.66;5037344;28;20041;-71
2023/09/28 10:56:41;;;;;;;;;;;;;;;21.80;100.00;101717.28;5038277;28;19913;-70
2023/09/28 10:59:07;;;;;;;;;;;;;;;21.91;96.75;101721.53;5038332;28;19920;-70
2023/09/28 11:01:32;;;;;;;;;;;;;;;21.11;100.00;101718.41;5037353;28;19943;-70
2023/09/28 11:03:58;;;;;;;;;;;;;;;21.06;100.00;101723.53;5038476;28;20001;-71
2023/09/28 11:06:23;;;;;;;;;;;;;;;20.49;100.00;101720.44;5055044;28;19955;-70
2023/09/28 11:08:49;;;;;;;;;;;;;;;20.75;100.00;101721.38;5020675;28;20420;-70
2023/09/28 11:11:17;;;;;;;;;;;;;;;20.59;100.00;101722.19;5037973;28;19928;-70
2023/09/28 11:13:43;;;;;;;;;;;;;;;20.40;100.00;101726.00;5037621;28;20373;-70
2023/09/28 11:16:09;;;;;;;;;;;;;;;20.16;100.00;101720.25;5037369;28;20141;-69
2023/09/28 11:18:35;;;;;;;;;;;;;;;20.18;100.00;101729.13;5037417;28;19920;-70
2023/09/28 11:21:03;;;;;;;;;;;;;;;20.56;100.00;101733.41;5037945;28;19920;-69
2023/09/28 11:23:28;;;;;;;;;;;;;;;20.66;100.00;101742.31;5037300;28;19920;-70
2023/09/28 11:25:53;;;;;;;;;;;;;;;20.00;100.00;101744.69;5039025;28;19920;-70
2023/09/28 11:28:19;;;;;;;;;;;;;;;20.10;100.00;101750.91;5037886;28;19943;-69
2023/09/28 11:30:44;;;;;;;;;;;;;;;20.48;100.00;101737.81;5019585;28;19924;-68
2023/09/28 11:33:09;;;;;;;;;;;;;;;20.90;100.00;101732.56;5037288;28;19927;-69
2023/09/28 11:35:34;;;;;;;;;;;;;;;20.82;100.00;101736.97;5037778;28;19923;-72
2023/09/28 11:38:00;;;;;;;;;;;;;;;21.21;100.00;101738.25;5036315;28;20346;-69
2023/09/28 11:40:26;;;;;;;;;;;;;;;20.57;100.00;101743.31;5037217;28;20108;-71
2023/09/28 11:42:52;;;;;;;;;;;;;;;21.12;100.00;101733.78;5019979;28;19912;-69
2023/09/28 11:45:17;;;;;;;;;;;;;;;21.07;100.00;101726.09;5036834;28;20395;-69
2023/09/28 11:47:45;;;;;;;;;;;;;;;21.05;100.00;101713.66;5036723;28;19921;-69
2023/09/28 11:50:10;;;;;;;;;;;;;;;20.57;100.00;101735.13;5037186;28;19963;-70
2023/09/28 11:52:36;;;;;;;;;;;;;;;20.28;100.00;101739.06;5038321;28;19924;-72
2023/09/28 11:55:02;;;;;;;;;;;;;;;19.85;100.00;101742.53;5038491;28;19968;-70
2023/09/28 11:57:28;;;;;;;;;;;;;;;19.98;100.00;101736.69;5036849;28;19927;-70
2023/09/28 11:59:53;;;;;;;;;;;;;;;19.88;100.00;101716.84;5038328;28;20275;-70
2023/09/28 12:02:19;;;;;;;;;;;;;;;19.95;100.00;101730.69;5038147;28;19925;-71
2023/09/28 12:04:44;;;;;;;;;;;;;;;20.48;100.00;101715.16;5037228;28;19916;-71
2023/09/28 12:07:10;;;;;;;;;;;;;;;20.61;100.00;101722.88;5037602;28;20106;-70
2023/09/28 12:09:35;;;;;;;;;;;;;;;20.92;100.00;101717.72;5036591;28;19987;-70
2023/09/28 12:12:00;;;;;;;;;;;;;;;21.22;100.00;101722.69;5037924;28;20019;-70
2023/09/28 12:14:25;;;;;;;;;;;;;;;21.40;100.00;101722.56;5036621;28;19916;-70
2023/09/28 12:16:52;;;;;;;;;;;;;;;20.91;100.00;101715.16;5038450;28;19928;-70
2023/09/28 12:19:18;;;;;;;;;;;;;;;22.14;100.00;101717.03;5037547;28;20109;-71
2023/09/28 12:21:45;;;;;;;;;;;;;;;22.67;94.85;101719.25;5036560;28;19920;-70